sensor_id;sensor_type;location;lat;lon;timestamp;pressure;altitude;pressure_sealevel;temperature;humidity
72802;BME280;61891;55.818;37.084;2023-07-28T00:01:28;97989.34;;;21.31;73.43
72802;BME280;61891;55.818;37.084;2023-07-28T00:03:54;97995.25;;;21.23;72.81
72802;BME280;61891;55.818;37.084;2023-07-28T00:06:19;97994.44;;;21.17;73.16
72802;BME280;61891;55.818;37.084;2023-07-28T00:08:45;97988.50;;;21.05;73.34
72802;BME280;61891;55.818;37.084;2023-07-28T00:11:11;97991.72;;;21.02;73.11
72802;BME280;61891;55.818;37.084;2023-07-28T00:13:40;98000.59;;;20.98;74.11
72802;BME280;61891;55.818;37.084;2023-07-28T00:16:06;97999.78;;;20.92;74.18
72802;BME280;61891;55.818;37.084;2023-07-28T00:18:33;97977.63;;;20.65;74.95
72802;BME280;61891;55.818;37.084;2023-07-28T00:20:59;98013.22;;;20.82;75.25
72802;BME280;61891;55.818;37.084;2023-07-28T00:23:24;97989.97;;;20.55;75.70
72802;BME280;61891;55.818;37.084;2023-07-28T00:25:50;98024.75;;;20.72;75.85
72802;BME280;61891;55.818;37.084;2023-07-28T00:28:16;98039.56;;;20.70;76.01
72802;BME280;61891;55.818;37.084;2023-07-28T00:30:41;98026.63;;;20.67;76.21
72802;BME280;61891;55.818;37.084;2023-07-28T00:33:07;98007.19;;;20.49;76.44
72802;BME280;61891;55.818;37.084;2023-07-28T00:35:33;98034.97;;;20.65;76.55
72802;BME280;61891;55.818;37.084;2023-07-28T00:37:59;98033.09;;;20.66;76.67
72802;BME280;61891;55.818;37.084;2023-07-28T00:40:25;98027.69;;;20.60;76.89
72802;BME280;61891;55.818;37.084;2023-07-28T00:42:51;98025.53;;;20.63;76.80
72802;BME280;61891;55.818;37.084;2023-07-28T00:45:17;98014.75;;;20.57;76.61
72802;BME280;61891;55.818;37.084;2023-07-28T00:47:45;98018.00;;;20.59;76.40
72802;BME280;61891;55.818;37.084;2023-07-28T00:50:11;98016.63;;;20.57;77.09
72802;BME280;61891;55.818;37.084;2023-07-28T00:52:39;98028.50;;;20.61;76.80
72802;BME280;61891;55.818;37.084;2023-07-28T00:55:05;98036.59;;;20.71;77.19
72802;BME280;61891;55.818;37.084;2023-07-28T00:57:31;98037.97;;;20.74;76.92
72802;BME280;61891;55.818;37.084;2023-07-28T00:59:57;98018.53;;;20.62;76.71
72802;BME280;61891;55.818;37.084;2023-07-28T01:02:23;98047.91;;;20.73;77.15
72802;BME280;61891;55.818;37.084;2023-07-28T01:04:49;98043.88;;;20.76;77.02
72802;BME280;61891;55.818;37.084;2023-07-28T01:07:42;98027.44;;;20.72;76.50
72802;BME280;61891;55.818;37.084;2023-07-28T01:10:13;98021.81;;;20.74;76.86
72802;BME280;61891;55.818;37.084;2023-07-28T01:12:40;98012.63;;;20.70;76.52
72802;BME280;61891;55.818;37.084;2023-07-28T01:15:06;98022.06;;;20.77;76.29
72802;BME280;61891;55.818;37.084;2023-07-28T01:17:32;97989.19;;;20.60;76.53
72802;BME280;61891;55.818;37.084;2023-07-28T01:19:58;98000.50;;;20.67;76.14
72802;BME280;61891;55.818;37.084;2023-07-28T01:22:47;98012.94;;;20.78;76.54
72802;BME280;61891;55.818;37.084;2023-07-28T01:25:28;97965.19;;;20.48;76.00
72802;BME280;61891;55.818;37.084;2023-07-28T01:27:58;97997.03;;;20.72;76.59
72802;BME280;61891;55.818;37.084;2023-07-28T01:30:27;97981.09;;;20.55;76.80
72802;BME280;61891;55.818;37.084;2023-07-28T01:32:57;97998.91;;;20.71;76.16
72802;BME280;61891;55.818;37.084;2023-07-28T01:35:25;97981.13;;;20.65;76.65
72802;BME280;61891;55.818;37.084;2023-07-28T01:37:51;97977.06;;;20.57;76.23
72802;BME280;61891;55.818;37.084;2023-07-28T01:40:18;97999.47;;;20.78;76.58
72802;BME280;61891;55.818;37.084;2023-07-28T01:42:46;98008.91;;;20.81;76.42
72802;BME280;61891;55.818;37.084;2023-07-28T01:45:12;97997.28;;;20.75;76.25
72802;BME280;61891;55.818;37.084;2023-07-28T01:47:38;97983.03;;;20.75;76.81
72802;BME280;61891;55.818;37.084;2023-07-28T01:50:04;97984.91;;;20.74;76.64
72802;BME280;61891;55.818;37.084;2023-07-28T01:52:30;97953.34;;;20.54;76.34
72802;BME280;61891;55.818;37.084;2023-07-28T01:54:56;97980.88;;;20.77;76.71
72802;BME280;61891;55.818;37.084;2023-07-28T01:57:21;97956.09;;;20.70;76.65
72802;BME280;61891;55.818;37.084;2023-07-28T01:59:47;97977.41;;;20.81;77.25
72802;BME280;61891;55.818;37.084;2023-07-28T02:02:13;97948.00;;;20.65;76.26
72802;BME280;61891;55.818;37.084;2023-07-28T02:04:38;97955.81;;;20.76;76.25
72802;BME280;61891;55.818;37.084;2023-07-28T02:07:04;97935.63;;;20.69;76.74
72802;BME280;61891;55.818;37.084;2023-07-28T02:09:30;97934.28;;;20.76;76.23
72802;BME280;61891;55.818;37.084;2023-07-28T02:11:56;97944.84;;;20.93;76.58
72802;BME280;61891;55.818;37.084;2023-07-28T02:14:21;97938.91;;;20.96;77.28
72802;BME280;61891;55.818;37.084;2023-07-28T02:16:47;97934.06;;;20.98;76.22
72802;BME280;61891;55.818;37.084;2023-07-28T02:19:33;97921.66;;;20.92;75.88
72802;BME280;61891;55.818;37.084;2023-07-28T02:21:58;97914.38;;;20.82;76.18
72802;BME280;61891;55.818;37.084;2023-07-28T02:24:24;97935.13;;;20.92;75.68
72802;BME280;61891;55.818;37.084;2023-07-28T02:26:50;97950.22;;;20.98;76.53
72802;BME280;61891;55.818;37.084;2023-07-28T02:29:16;97927.59;;;20.84;76.18
72802;BME280;61891;55.818;37.084;2023-07-28T02:31:42;97959.94;;;20.99;76.03
72802;BME280;61891;55.818;37.084;2023-07-28T02:34:07;97960.72;;;21.00;75.69
72802;BME280;61891;55.818;37.084;2023-07-28T02:36:33;97963.97;;;21.02;75.90
72802;BME280;61891;55.818;37.084;2023-07-28T02:38:59;97957.78;;;21.01;76.02
72802;BME280;61891;55.818;37.084;2023-07-28T02:41:25;97954.81;;;20.98;75.85
72802;BME280;61891;55.818;37.084;2023-07-28T02:43:50;97946.44;;;20.94;75.82
72802;BME280;61891;55.818;37.084;2023-07-28T02:46:16;97960.19;;;21.03;75.84
72802;BME280;61891;55.818;37.084;2023-07-28T02:48:42;97952.13;;;21.08;75.99
72802;BME280;61891;55.818;37.084;2023-07-28T02:51:08;97937.03;;;20.91;75.64
72802;BME280;61891;55.818;37.084;2023-07-28T02:53:33;97959.38;;;20.87;75.25
72802;BME280;61891;55.818;37.084;2023-07-28T02:55:59;97952.88;;;20.78;75.36
72802;BME280;61891;55.818;37.084;2023-07-28T02:58:25;97961.75;;;20.73;75.17
72802;BME280;61891;55.818;37.084;2023-07-28T03:00:51;97974.13;;;20.69;75.04
72802;BME280;61891;55.818;37.084;2023-07-28T03:03:22;98014.84;;;20.83;75.21
72802;BME280;61891;55.818;37.084;2023-07-28T03:05:52;97962.47;;;20.43;75.25
72802;BME280;61891;55.818;37.084;2023-07-28T03:08:24;98034.78;;;20.82;75.35
72802;BME280;61891;55.818;37.084;2023-07-28T03:10:56;98037.47;;;20.82;75.85
72802;BME280;61891;55.818;37.084;2023-07-28T03:13:22;98008.06;;;20.75;75.32
72802;BME280;61891;55.818;37.084;2023-07-28T03:15:48;98031.84;;;20.94;75.88
72802;BME280;61891;55.818;37.084;2023-07-28T03:18:17;98020.81;;;21.00;75.79
72802;BME280;61891;55.818;37.084;2023-07-28T03:20:43;98001.94;;;20.95;75.18
72802;BME280;61891;55.818;37.084;2023-07-28T03:23:09;98032.41;;;21.11;75.40
72802;BME280;61891;55.818;37.084;2023-07-28T03:25:34;98069.59;;;21.14;74.91
72802;BME280;61891;55.818;37.084;2023-07-28T03:28:00;98081.44;;;20.98;74.49
72802;BME280;61891;55.818;37.084;2023-07-28T03:30:26;98089.25;;;20.99;74.54
72802;BME280;61891;55.818;37.084;2023-07-28T03:32:52;98100.56;;;21.01;74.99
72802;BME280;61891;55.818;37.084;2023-07-28T03:35:18;98098.94;;;21.00;74.65
72802;BME280;61891;55.818;37.084;2023-07-28T03:37:51;98100.03;;;20.99;74.98
72802;BME280;61891;55.818;37.084;2023-07-28T03:40:17;98107.84;;;21.01;75.56
72802;BME280;61891;55.818;37.084;2023-07-28T03:42:48;98114.03;;;21.01;74.87
72802;BME280;61891;55.818;37.084;2023-07-28T03:45:14;98108.66;;;21.01;75.47
72802;BME280;61891;55.818;37.084;2023-07-28T03:47:39;98112.94;;;20.97;75.03
72802;BME280;61891;55.818;37.084;2023-07-28T03:50:05;98129.09;;;20.97;74.71
72802;BME280;61891;55.818;37.084;2023-07-28T03:52:31;98108.56;;;20.81;74.95
72802;BME280;61891;55.818;37.084;2023-07-28T03:54:57;98124.75;;;20.86;75.52
72802;BME280;61891;55.818;37.084;2023-07-28T03:57:23;98122.00;;;20.76;75.91
72802;BME280;61891;55.818;37.084;2023-07-28T03:59:48;98128.16;;;20.71;76.15
72802;BME280;61891;55.818;37.084;2023-07-28T04:02:14;98122.53;;;20.78;76.68
72802;BME280;61891;55.818;37.084;2023-07-28T04:04:40;98101.47;;;20.65;76.84
72802;BME280;61891;55.818;37.084;2023-07-28T04:07:06;98102.31;;;20.70;76.94
72802;BME280;61891;55.818;37.084;2023-07-28T04:09:31;98075.34;;;20.60;76.88
72802;BME280;61891;55.818;37.084;2023-07-28T04:11:57;98016.63;;;20.52;77.15
72802;BME280;61891;55.818;37.084;2023-07-28T04:14:23;97998.31;;;20.54;77.25
72802;BME280;61891;55.818;37.084;2023-07-28T04:16:49;97993.25;;;20.78;77.22
72802;BME280;61891;55.818;37.084;2023-07-28T04:19:14;97952.88;;;20.78;77.22
72802;BME280;61891;55.818;37.084;2023-07-28T04:21:41;97905.22;;;20.83;77.18
72802;BME280;61891;55.818;37.084;2023-07-28T04:24:08;97903.88;;;20.81;76.93
72802;BME280;61891;55.818;37.084;2023-07-28T04:26:38;97948.34;;;20.94;77.38
72802;BME280;61891;55.818;37.084;2023-07-28T04:29:04;97903.88;;;20.96;76.87
72802;BME280;61891;55.818;37.084;2023-07-28T04:31:30;97902.53;;;20.99;76.85
72802;BME280;61891;55.818;37.084;2023-07-28T04:34:02;97889.88;;;20.89;76.80
72802;BME280;61891;55.818;37.084;2023-07-28T04:36:48;97928.66;;;21.03;76.86
72802;BME280;61891;55.818;37.084;2023-07-28T04:39:16;97919.78;;;21.03;76.76
72802;BME280;61891;55.818;37.084;2023-07-28T04:41:42;97949.16;;;21.14;77.41
72802;BME280;61891;55.818;37.084;2023-07-28T04:44:08;97968.00;;;21.19;76.45
72802;BME280;61891;55.818;37.084;2023-07-28T04:46:37;97964.81;;;21.22;76.40
72802;BME280;61891;55.818;37.084;2023-07-28T04:49:08;97971.81;;;21.29;76.07
72802;BME280;61891;55.818;37.084;2023-07-28T04:52:09;97976.66;;;21.37;75.82
72802;BME280;61891;55.818;37.084;2023-07-28T04:54:37;97961.03;;;21.44;76.26
72802;BME280;61891;55.818;37.084;2023-07-28T04:57:03;97975.03;;;21.61;76.08
72802;BME280;61891;55.818;37.084;2023-07-28T04:59:32;97961.81;;;21.65;75.86
72802;BME280;61891;55.818;37.084;2023-07-28T05:01:58;97987.09;;;21.89;75.41
72802;BME280;61891;55.818;37.084;2023-07-28T05:04:24;97945.06;;;21.78;74.27
72802;BME280;61891;55.818;37.084;2023-07-28T05:06:50;97958.75;;;21.97;75.23
72802;BME280;61891;55.818;37.084;2023-07-28T05:09:15;97906.19;;;21.79;74.44
72802;BME280;61891;55.818;37.084;2023-07-28T05:11:41;97960.63;;;22.11;74.99
72802;BME280;61891;55.818;37.084;2023-07-28T05:14:07;97960.88;;;22.15;74.41
72802;BME280;61891;55.818;37.084;2023-07-28T05:16:34;97954.94;;;22.18;73.91
72802;BME280;61891;55.818;37.084;2023-07-28T05:19:07;97950.59;;;22.22;73.96
72802;BME280;61891;55.818;37.084;2023-07-28T05:21:58;97940.31;;;22.29;73.94
72802;BME280;61891;55.818;37.084;2023-07-28T05:24:33;97911.22;;;22.11;73.57
72802;BME280;61891;55.818;37.084;2023-07-28T05:26:59;97941.38;;;22.28;74.19
72802;BME280;61891;55.818;37.084;2023-07-28T05:29:25;97952.44;;;22.32;73.97
72802;BME280;61891;55.818;37.084;2023-07-28T05:31:53;97941.16;;;22.19;73.42
72802;BME280;61891;55.818;37.084;2023-07-28T05:34:26;97955.47;;;22.20;73.45
72802;BME280;61891;55.818;37.084;2023-07-28T05:36:52;97963.84;;;22.13;73.47
72802;BME280;61891;55.818;37.084;2023-07-28T05:39:17;97955.50;;;22.00;73.52
72802;BME280;61891;55.818;37.084;2023-07-28T05:41:46;97971.44;;;22.06;73.63
72802;BME280;61891;55.818;37.084;2023-07-28T05:44:13;97978.44;;;22.12;72.91
72802;BME280;61891;55.818;37.084;2023-07-28T05:46:39;97976.00;;;22.01;72.96
72802;BME280;61891;55.818;37.084;2023-07-28T05:49:05;97988.69;;;22.10;73.05
72802;BME280;61891;55.818;37.084;2023-07-28T05:51:30;97979.78;;;22.00;72.87
72802;BME280;61891;55.818;37.084;2023-07-28T05:53:57;97993.28;;;22.15;73.02
72802;BME280;61891;55.818;37.084;2023-07-28T05:56:23;97984.34;;;22.19;73.28
72802;BME280;61891;55.818;37.084;2023-07-28T05:58:49;97982.97;;;22.22;72.86
72802;BME280;61891;55.818;37.084;2023-07-28T06:01:16;97991.03;;;22.32;72.71
72802;BME280;61891;55.818;37.084;2023-07-28T06:04:01;97994.22;;;22.49;72.60
72802;BME280;61891;55.818;37.084;2023-07-28T06:06:29;97985.19;;;22.69;72.39
72802;BME280;61891;55.818;37.084;2023-07-28T06:08:55;97990.50;;;22.90;71.76
72802;BME280;61891;55.818;37.084;2023-07-28T06:11:21;98006.03;;;23.13;71.70
72802;BME280;61891;55.818;37.084;2023-07-28T06:13:47;97995.22;;;23.13;70.96
72802;BME280;61891;55.818;37.084;2023-07-28T06:16:14;98013.22;;;23.28;70.89
72802;BME280;61891;55.818;37.084;2023-07-28T06:18:41;98017.00;;;23.27;71.13
72802;BME280;61891;55.818;37.084;2023-07-28T06:21:17;98007.00;;;23.27;70.85
72802;BME280;61891;55.818;37.084;2023-07-28T06:23:42;98028.50;;;23.42;70.38
72802;BME280;61891;55.818;37.084;2023-07-28T06:26:08;98033.06;;;23.47;70.25
72802;BME280;61891;55.818;37.084;2023-07-28T06:28:41;98037.72;;;23.41;70.14
72802;BME280;61891;55.818;37.084;2023-07-28T06:31:07;98047.25;;;23.34;70.45
72802;BME280;61891;55.818;37.084;2023-07-28T06:33:36;98045.19;;;23.15;70.22
72802;BME280;61891;55.818;37.084;2023-07-28T06:36:02;98069.63;;;23.00;70.70
72802;BME280;61891;55.818;37.084;2023-07-28T06:38:28;98075.41;;;22.73;70.59
72802;BME280;61891;55.818;37.084;2023-07-28T06:40:54;98109.75;;;22.63;70.94
72802;BME280;61891;55.818;37.084;2023-07-28T06:43:22;98128.16;;;22.45;71.45
72802;BME280;61891;55.818;37.084;2023-07-28T06:45:56;98160.06;;;22.28;72.09
72802;BME280;61891;55.818;37.084;2023-07-28T06:48:22;98143.88;;;21.98;72.73
72802;BME280;61891;55.818;37.084;2023-07-28T06:50:48;98187.03;;;21.98;72.91
72802;BME280;61891;55.818;37.084;2023-07-28T06:53:16;98167.31;;;21.67;73.26
72802;BME280;61891;55.818;37.084;2023-07-28T06:55:46;98211.56;;;21.71;73.91
72802;BME280;61891;55.818;37.084;2023-07-28T06:58:12;98229.59;;;21.50;74.54
72802;BME280;61891;55.818;37.084;2023-07-28T07:00:38;98232.19;;;21.25;75.19
72802;BME280;61891;55.818;37.084;2023-07-28T07:03:06;98218.53;;;20.94;76.26
72802;BME280;61891;55.818;37.084;2023-07-28T07:05:32;98235.78;;;20.93;76.98
72802;BME280;61891;55.818;37.084;2023-07-28T07:07:58;98187.69;;;20.70;76.69
72802;BME280;61891;55.818;37.084;2023-07-28T07:10:26;98129.44;;;20.58;76.85
72802;BME280;61891;55.818;37.084;2023-07-28T07:12:52;98108.22;;;20.67;77.26
72802;BME280;61891;55.818;37.084;2023-07-28T07:15:18;98061.63;;;20.62;77.55
72802;BME280;61891;55.818;37.084;2023-07-28T07:17:46;98067.84;;;20.67;77.45
72802;BME280;61891;55.818;37.084;2023-07-28T07:20:12;98093.69;;;20.68;77.43
72802;BME280;61891;55.818;37.084;2023-07-28T07:22:38;98095.25;;;20.59;77.33
72802;BME280;61891;55.818;37.084;2023-07-28T07:25:03;98098.28;;;20.73;77.50
72802;BME280;61891;55.818;37.084;2023-07-28T07:27:31;98082.66;;;20.75;77.76
72802;BME280;61891;55.818;37.084;2023-07-28T07:29:59;98072.44;;;20.77;77.83
72802;BME280;61891;55.818;37.084;2023-07-28T07:32:25;98069.19;;;20.70;77.40
72802;BME280;61891;55.818;37.084;2023-07-28T07:34:51;98083.81;;;20.89;77.75
72802;BME280;61891;55.818;37.084;2023-07-28T07:37:18;98044.97;;;20.80;77.29
72802;BME280;61891;55.818;37.084;2023-07-28T07:39:46;98021.59;;;20.85;77.37
72802;BME280;61891;55.818;37.084;2023-07-28T07:42:12;98042.38;;;21.05;77.91
72802;BME280;61891;55.818;37.084;2023-07-28T07:44:39;98040.25;;;21.17;77.22
72802;BME280;61891;55.818;37.084;2023-07-28T07:47:14;98076.41;;;21.27;77.68
72802;BME280;61891;55.818;37.084;2023-07-28T07:49:43;98081.78;;;21.32;77.15
72802;BME280;61891;55.818;37.084;2023-07-28T07:52:09;98086.13;;;21.53;76.97
72802;BME280;61891;55.818;37.084;2023-07-28T07:54:38;98074.25;;;21.49;76.98
72802;BME280;61891;55.818;37.084;2023-07-28T07:57:07;98098.53;;;21.69;75.97
72802;BME280;61891;55.818;37.084;2023-07-28T07:59:32;98092.88;;;21.76;75.72
72802;BME280;61891;55.818;37.084;2023-07-28T08:01:59;98093.13;;;21.90;76.20
72802;BME280;61891;55.818;37.084;2023-07-28T08:04:28;98079.94;;;21.83;75.88
72802;BME280;61891;55.818;37.084;2023-07-28T08:06:54;98109.31;;;22.00;75.71
72802;BME280;61891;55.818;37.084;2023-07-28T08:09:20;98103.66;;;22.01;75.53
72802;BME280;61891;55.818;37.084;2023-07-28T08:11:48;98094.75;;;22.11;75.08
72802;BME280;61891;55.818;37.084;2023-07-28T08:14:17;98111.19;;;22.35;74.41
72802;BME280;61891;55.818;37.084;2023-07-28T08:16:43;98120.34;;;22.44;73.75
72802;BME280;61891;55.818;37.084;2023-07-28T08:19:12;98084.16;;;22.45;73.45
72802;BME280;61891;55.818;37.084;2023-07-28T08:21:38;98080.03;;;22.63;73.70
72802;BME280;61891;55.818;37.084;2023-07-28T08:24:04;98112.06;;;23.00;72.89
72802;BME280;61891;55.818;37.084;2023-07-28T08:26:30;98103.16;;;22.94;72.42
72802;BME280;61891;55.818;37.084;2023-07-28T08:28:56;98117.25;;;22.91;72.61
72802;BME280;61891;55.818;37.084;2023-07-28T08:31:22;98113.28;;;22.58;72.83
72802;BME280;61891;55.818;37.084;2023-07-28T08:33:47;98117.59;;;22.59;72.55
72802;BME280;61891;55.818;37.084;2023-07-28T08:36:13;98098.47;;;22.40;72.73
72802;BME280;61891;55.818;37.084;2023-07-28T08:38:39;98118.97;;;22.57;72.35
72802;BME280;61891;55.818;37.084;2023-07-28T08:41:07;98100.88;;;22.52;72.09
72802;BME280;61891;55.818;37.084;2023-07-28T08:43:33;98114.59;;;22.81;71.87
72802;BME280;61891;55.818;37.084;2023-07-28T08:45:58;98115.34;;;22.92;71.39
72802;BME280;61891;55.818;37.084;2023-07-28T08:48:27;98118.38;;;22.80;70.20
72802;BME280;61891;55.818;37.084;2023-07-28T08:50:53;98134.03;;;22.83;70.67
72802;BME280;61891;55.818;37.084;2023-07-28T08:53:19;98124.56;;;22.75;69.86
72802;BME280;61891;55.818;37.084;2023-07-28T08:55:45;98140.41;;;23.07;70.01
72802;BME280;61891;55.818;37.084;2023-07-28T09:00:44;98132.63;;;23.45;69.51
72802;BME280;61891;55.818;37.084;2023-07-28T09:03:09;98154.94;;;23.71;69.26
72802;BME280;61891;55.818;37.084;2023-07-28T09:05:35;98167.03;;;23.84;68.87
72802;BME280;61891;55.818;37.084;2023-07-28T09:08:01;98158.41;;;23.76;67.91
72802;BME280;61891;55.818;37.084;2023-07-28T09:10:46;98165.31;;;23.54;68.01
72802;BME280;61891;55.818;37.084;2023-07-28T09:13:13;98163.50;;;23.39;68.13
72802;BME280;61891;55.818;37.084;2023-07-28T09:15:39;98146.00;;;23.21;68.56
72802;BME280;61891;55.818;37.084;2023-07-28T09:18:09;98119.09;;;23.01;68.53
72802;BME280;61891;55.818;37.084;2023-07-28T09:20:37;98167.38;;;23.23;68.88
72802;BME280;61891;55.818;37.084;2023-07-28T09:23:04;98153.13;;;23.07;68.74
72802;BME280;61891;55.818;37.084;2023-07-28T09:25:31;98180.16;;;23.02;69.21
72802;BME280;61891;55.818;37.084;2023-07-28T09:27:58;98205.31;;;23.02;69.32
72802;BME280;61891;55.818;37.084;2023-07-28T09:30:25;98191.81;;;22.97;69.35
72802;BME280;61891;55.818;37.084;2023-07-28T09:32:55;98235.56;;;23.09;68.27
72802;BME280;61891;55.818;37.084;2023-07-28T09:35:23;98245.31;;;23.00;67.90
72802;BME280;61891;55.818;37.084;2023-07-28T09:37:50;98242.63;;;22.95;67.98
72802;BME280;61891;55.818;37.084;2023-07-28T09:40:22;98244.81;;;22.88;68.24
72802;BME280;61891;55.818;37.084;2023-07-28T09:42:49;98189.75;;;22.48;68.64
72802;BME280;61891;55.818;37.084;2023-07-28T09:45:17;98208.13;;;22.36;68.66
72802;BME280;61891;55.818;37.084;2023-07-28T09:47:47;98259.41;;;22.51;69.50
72802;BME280;61891;55.818;37.084;2023-07-28T09:50:17;98225.94;;;22.22;69.50
72802;BME280;61891;55.818;37.084;2023-07-28T09:52:46;98208.66;;;22.08;70.00
72802;BME280;61891;55.818;37.084;2023-07-28T09:55:13;98248.63;;;22.26;70.07
72802;BME280;61891;55.818;37.084;2023-07-28T09:57:46;98246.47;;;22.23;70.51
72802;BME280;61891;55.818;37.084;2023-07-28T10:00:17;98225.94;;;22.12;70.47
72802;BME280;61891;55.818;37.084;2023-07-28T10:02:44;98235.38;;;22.09;71.19
72802;BME280;61891;55.818;37.084;2023-07-28T10:05:11;98216.75;;;22.03;71.15
72802;BME280;61891;55.818;37.084;2023-07-28T10:07:39;98225.41;;;22.05;71.09
72802;BME280;61891;55.818;37.084;2023-07-28T10:10:08;98191.34;;;21.83;71.14
72802;BME280;61891;55.818;37.084;2023-07-28T10:12:52;98229.72;;;22.11;70.73
72802;BME280;61891;55.818;37.084;2023-07-28T10:15:31;98204.59;;;22.00;70.88
72802;BME280;61891;55.818;37.084;2023-07-28T10:17:58;98211.63;;;22.11;70.83
72802;BME280;61891;55.818;37.084;2023-07-28T10:20:36;98237.28;;;22.24;71.36
72802;BME280;61891;55.818;37.084;2023-07-28T10:23:21;98246.72;;;22.22;70.93
72802;BME280;61891;55.818;37.084;2023-07-28T10:25:59;98231.56;;;22.00;70.76
72802;BME280;61891;55.818;37.084;2023-07-28T10:30:52;98256.41;;;21.97;71.22
72802;BME280;61891;55.818;37.084;2023-07-28T10:33:32;98260.69;;;21.83;71.04
72802;BME280;61891;55.818;37.084;2023-07-28T10:38:35;98234.16;;;21.49;71.46
72802;BME280;61891;55.818;37.084;2023-07-28T10:41:28;98230.66;;;21.54;71.38
72802;BME280;61891;55.818;37.084;2023-07-28T10:43:54;98239.06;;;21.63;70.94
72802;BME280;61891;55.818;37.084;2023-07-28T10:46:20;98238.81;;;21.69;71.08
72802;BME280;61891;55.818;37.084;2023-07-28T10:48:48;98226.94;;;21.75;71.02
72802;BME280;61891;55.818;37.084;2023-07-28T10:51:25;98211.88;;;22.00;70.95
72802;BME280;61891;55.818;37.084;2023-07-28T10:53:55;98206.78;;;22.13;70.42
72802;BME280;61891;55.818;37.084;2023-07-28T10:56:21;98194.09;;;22.09;69.76
72802;BME280;61891;55.818;37.084;2023-07-28T10:58:54;98213.78;;;22.14;68.73
72802;BME280;61891;55.818;37.084;2023-07-28T11:01:20;98203.28;;;22.08;69.13
72802;BME280;61891;55.818;37.084;2023-07-28T11:03:46;98200.25;;;21.99;68.78
72802;BME280;61891;55.818;37.084;2023-07-28T11:06:12;98199.44;;;21.88;69.03
72802;BME280;61891;55.818;37.084;2023-07-28T11:08:38;98165.44;;;21.67;68.91
72802;BME280;61891;55.818;37.084;2023-07-28T11:11:04;98208.63;;;21.82;67.95
72802;BME280;61891;55.818;37.084;2023-07-28T11:13:31;98189.44;;;21.59;68.61
72802;BME280;61891;55.818;37.084;2023-07-28T11:15:57;98191.88;;;21.65;67.79
72802;BME280;61891;55.818;37.084;2023-07-28T11:18:25;98194.56;;;21.65;68.39
72802;BME280;61891;55.818;37.084;2023-07-28T11:20:51;98185.38;;;21.66;67.83
72802;BME280;61891;55.818;37.084;2023-07-28T11:23:17;98195.41;;;21.81;67.73
72802;BME280;61891;55.818;37.084;2023-07-28T11:25:43;98159.50;;;21.65;68.05
72802;BME280;61891;55.818;37.084;2023-07-28T11:28:10;98187.56;;;21.84;67.82
72802;BME280;61891;55.818;37.084;2023-07-28T11:30:36;98184.59;;;21.76;67.40
72802;BME280;61891;55.818;37.084;2023-07-28T11:33:09;98204.00;;;21.68;67.87
72802;BME280;61891;55.818;37.084;2023-07-28T11:35:38;98170.25;;;21.50;67.49
72802;BME280;61891;55.818;37.084;2023-07-28T11:38:05;98201.31;;;21.68;67.90
72802;BME280;61891;55.818;37.084;2023-07-28T11:40:31;98241.00;;;21.82;67.60
72802;BME280;61891;55.818;37.084;2023-07-28T11:42:58;98262.06;;;21.91;67.72
72802;BME280;61891;55.818;37.084;2023-07-28T11:45:24;98257.16;;;21.72;67.19
72802;BME280;61891;55.818;37.084;2023-07-28T11:47:51;98287.38;;;21.79;67.39
72802;BME280;61891;55.818;37.084;2023-07-28T11:50:25;98306.78;;;21.71;67.44
72802;BME280;61891;55.818;37.084;2023-07-28T11:52:51;98240.81;;;21.27;67.31
72802;BME280;61891;55.818;37.084;2023-07-28T11:55:17;98316.72;;;21.61;66.90
72802;BME280;61891;55.818;37.084;2023-07-28T11:57:43;98319.66;;;21.54;67.20
72802;BME280;61891;55.818;37.084;2023-07-28T12:00:10;98308.56;;;21.45;67.31
72802;BME280;61891;55.818;37.084;2023-07-28T12:02:47;98308.28;;;21.42;67.60
72802;BME280;61891;55.818;37.084;2023-07-28T12:05:15;98287.66;;;21.20;67.13
72802;BME280;61891;55.818;37.084;2023-07-28T12:07:47;98311.19;;;21.30;67.64
72802;BME280;61891;55.818;37.084;2023-07-28T12:10:13;98334.97;;;21.38;66.94
72802;BME280;61891;55.818;37.084;2023-07-28T12:12:39;98334.97;;;21.38;67.25
72802;BME280;61891;55.818;37.084;2023-07-28T12:18:06;98327.69;;;21.39;67.28
72802;BME280;61891;55.818;37.084;2023-07-28T12:20:49;98324.44;;;21.37;66.97
72802;BME280;61891;55.818;37.084;2023-07-28T12:23:17;98328.53;;;21.44;67.18
72802;BME280;61891;55.818;37.084;2023-07-28T12:25:44;98319.63;;;21.44;66.68
72802;BME280;61891;55.818;37.084;2023-07-28T12:28:10;98328.56;;;21.54;67.12
72802;BME280;61891;55.818;37.084;2023-07-28T12:30:37;98326.91;;;21.48;66.58
72802;BME280;61891;55.818;37.084;2023-07-28T12:33:04;98322.84;;;21.41;66.58
72802;BME280;61891;55.818;37.084;2023-07-28T12:35:31;98332.84;;;21.45;66.93
72802;BME280;61891;55.818;37.084;2023-07-28T12:38:01;98333.66;;;21.46;66.89
72802;BME280;61891;55.818;37.084;2023-07-28T12:40:31;98328.28;;;21.51;67.06
72802;BME280;61891;55.818;37.084;2023-07-28T12:42:58;98337.91;;;21.37;67.06
72802;BME280;61891;55.818;37.084;2023-07-28T12:45:25;98361.66;;;21.40;66.79
72802;BME280;61891;55.818;37.084;2023-07-28T12:47:52;98329.94;;;21.15;67.02
72802;BME280;61891;55.818;37.084;2023-07-28T12:50:22;98347.47;;;21.17;66.82
72802;BME280;61891;55.818;37.084;2023-07-28T12:52:48;98342.84;;;21.08;67.13
72802;BME280;61891;55.818;37.084;2023-07-28T12:55:15;98329.03;;;20.99;66.89
72802;BME280;61891;55.818;37.084;2023-07-28T12:57:41;98359.06;;;21.18;67.11
72802;BME280;61891;55.818;37.084;2023-07-28T13:00:07;98362.59;;;21.18;67.44
72802;BME280;61891;55.818;37.084;2023-07-28T13:02:40;98364.19;;;21.19;67.27
72802;BME280;61891;55.818;37.084;2023-07-28T13:05:08;98356.59;;;21.11;67.05